sensor_id;sensor_type;location;lat;lon;timestamp;P1;durP1;ratioP1;P2;durP2;ratioP2
48853;SDS011;34673;52.808;17.856;2022-10-26T00:01:06;18.77;;;10.55;;
48853;SDS011;34673;52.808;17.856;2022-10-26T00:03:38;17.67;;;10.32;;
48853;SDS011;34673;52.808;17.856;2022-10-26T00:06:08;20.75;;;11.68;;
48853;SDS011;34673;52.808;17.856;2022-10-26T00:08:45;16.55;;;9.75;;
48853;SDS011;34673;52.808;17.856;2022-10-26T00:11:13;20.75;;;10.77;;
48853;SDS011;34673;52.808;17.856;2022-10-26T00:13:42;18.13;;;9.43;;
48853;SDS011;34673;52.808;17.856;2022-10-26T00:16:12;25.40;;;11.82;;
48853;SDS011;34673;52.808;17.856;2022-10-26T00:18:48;22.05;;;12.05;;
48853;SDS011;34673;52.808;17.856;2022-10-26T00:21:15;15.60;;;10.13;;
48853;SDS011;34673;52.808;17.856;2022-10-26T00:23:43;17.73;;;10.27;;
48853;SDS011;34673;52.808;17.856;2022-10-26T00:26:10;22.00;;;12.32;;
48853;SDS011;34673;52.808;17.856;2022-10-26T00:28:38;22.20;;;11.35;;
48853;SDS011;34673;52.808;17.856;2022-10-26T00:31:07;17.75;;;11.02;;
48853;SDS011;34673;52.808;17.856;2022-10-26T00:33:37;18.27;;;10.43;;
48853;SDS011;34673;52.808;17.856;2022-10-26T00:36:05;18.05;;;10.00;;
48853;SDS011;34673;52.808;17.856;2022-10-26T00:38:35;22.27;;;12.05;;
48853;SDS011;34673;52.808;17.856;2022-10-26T00:41:02;16.65;;;9.80;;
48853;SDS011;34673;52.808;17.856;2022-10-26T00:45:57;19.63;;;10.30;;
48853;SDS011;34673;52.808;17.856;2022-10-26T00:48:26;20.55;;;10.00;;
48853;SDS011;34673;52.808;17.856;2022-10-26T00:51:02;15.93;;;9.13;;
48853;SDS011;34673;52.808;17.856;2022-10-26T00:53:34;16.92;;;10.13;;
48853;SDS011;34673;52.808;17.856;2022-10-26T00:56:01;20.10;;;10.63;;
48853;SDS011;34673;52.808;17.856;2022-10-26T00:58:29;16.80;;;10.52;;
48853;SDS011;34673;52.808;17.856;2022-10-26T01:00:58;18.85;;;10.60;;
48853;SDS011;34673;52.808;17.856;2022-10-26T01:03:25;19.92;;;11.02;;
48853;SDS011;34673;52.808;17.856;2022-10-26T01:05:54;16.67;;;10.75;;
48853;SDS011;34673;52.808;17.856;2022-10-26T01:08:24;21.63;;;11.65;;
48853;SDS011;34673;52.808;17.856;2022-10-26T01:10:54;18.65;;;10.15;;
48853;SDS011;34673;52.808;17.856;2022-10-26T01:13:24;15.93;;;9.52;;
48853;SDS011;34673;52.808;17.856;2022-10-26T01:21:33;20.17;;;11.98;;
48853;SDS011;34673;52.808;17.856;2022-10-26T01:35:05;22.77;;;12.18;;
48853;SDS011;34673;52.808;17.856;2022-10-26T01:37:36;24.17;;;13.23;;
48853;SDS011;34673;52.808;17.856;2022-10-26T01:42:43;24.13;;;13.85;;
48853;SDS011;34673;52.808;17.856;2022-10-26T01:45:17;31.42;;;14.82;;
48853;SDS011;34673;52.808;17.856;2022-10-26T01:47:46;21.20;;;13.55;;
48853;SDS011;34673;52.808;17.856;2022-10-26T01:50:14;28.20;;;13.93;;
48853;SDS011;34673;52.808;17.856;2022-10-26T01:52:43;24.58;;;14.88;;
48853;SDS011;34673;52.808;17.856;2022-10-26T01:58:04;26.30;;;13.73;;
48853;SDS011;34673;52.808;17.856;2022-10-26T02:12:12;33.33;;;14.82;;
48853;SDS011;34673;52.808;17.856;2022-10-26T02:14:52;83.85;;;18.67;;
48853;SDS011;34673;52.808;17.856;2022-10-26T02:20:30;80.75;;;18.38;;
48853;SDS011;34673;52.808;17.856;2022-10-26T02:23:03;56.67;;;17.05;;
48853;SDS011;34673;52.808;17.856;2022-10-26T02:25:34;66.70;;;17.70;;
48853;SDS011;34673;52.808;17.856;2022-10-26T02:28:07;33.72;;;14.02;;
48853;SDS011;34673;52.808;17.856;2022-10-26T02:30:39;43.25;;;14.27;;
48853;SDS011;34673;52.808;17.856;2022-10-26T02:33:09;88.32;;;21.02;;
48853;SDS011;34673;52.808;17.856;2022-10-26T02:35:39;91.13;;;20.83;;
48853;SDS011;34673;52.808;17.856;2022-10-26T02:38:09;62.63;;;16.65;;
48853;SDS011;34673;52.808;17.856;2022-10-26T02:40:38;40.22;;;14.70;;
48853;SDS011;34673;52.808;17.856;2022-10-26T02:43:09;49.88;;;15.10;;
48853;SDS011;34673;52.808;17.856;2022-10-26T02:45:45;74.03;;;17.85;;
48853;SDS011;34673;52.808;17.856;2022-10-26T02:48:17;57.35;;;14.48;;
48853;SDS011;34673;52.808;17.856;2022-10-26T02:50:58;45.08;;;13.88;;
48853;SDS011;34673;52.808;17.856;2022-10-26T02:53:31;66.60;;;15.32;;
48853;SDS011;34673;52.808;17.856;2022-10-26T02:56:01;51.38;;;17.05;;
48853;SDS011;34673;52.808;17.856;2022-10-26T02:58:36;44.67;;;16.08;;
48853;SDS011;34673;52.808;17.856;2022-10-26T03:01:07;42.78;;;13.85;;
48853;SDS011;34673;52.808;17.856;2022-10-26T03:03:34;27.17;;;15.02;;
48853;SDS011;34673;52.808;17.856;2022-10-26T03:06:02;78.32;;;20.90;;
48853;SDS011;34673;52.808;17.856;2022-10-26T03:08:29;29.65;;;14.35;;
48853;SDS011;34673;52.808;17.856;2022-10-26T03:10:56;53.70;;;19.20;;
48853;SDS011;34673;52.808;17.856;2022-10-26T03:13:24;61.50;;;18.88;;
48853;SDS011;34673;52.808;17.856;2022-10-26T03:15:54;40.08;;;17.92;;
48853;SDS011;34673;52.808;17.856;2022-10-26T03:18:23;62.95;;;20.20;;
48853;SDS011;34673;52.808;17.856;2022-10-26T03:20:50;70.63;;;21.33;;
48853;SDS011;34673;52.808;17.856;2022-10-26T03:23:17;52.03;;;19.45;;
48853;SDS011;34673;52.808;17.856;2022-10-26T03:25:44;28.63;;;15.27;;
48853;SDS011;34673;52.808;17.856;2022-10-26T03:28:12;39.85;;;18.73;;
48853;SDS011;34673;52.808;17.856;2022-10-26T03:30:39;37.92;;;17.90;;
48853;SDS011;34673;52.808;17.856;2022-10-26T03:33:07;53.83;;;19.80;;
48853;SDS011;34673;52.808;17.856;2022-10-26T03:35:34;54.70;;;20.67;;
48853;SDS011;34673;52.808;17.856;2022-10-26T03:38:01;44.00;;;18.80;;
48853;SDS011;34673;52.808;17.856;2022-10-26T03:40:28;53.90;;;21.33;;
48853;SDS011;34673;52.808;17.856;2022-10-26T03:42:55;56.80;;;18.23;;
48853;SDS011;34673;52.808;17.856;2022-10-26T03:45:22;55.95;;;17.48;;
48853;SDS011;34673;52.808;17.856;2022-10-26T03:47:50;44.40;;;16.70;;
48853;SDS011;34673;52.808;17.856;2022-10-26T03:50:17;35.40;;;14.48;;
48853;SDS011;34673;52.808;17.856;2022-10-26T03:52:46;71.18;;;20.50;;
48853;SDS011;34673;52.808;17.856;2022-10-26T03:55:15;36.78;;;15.60;;
48853;SDS011;34673;52.808;17.856;2022-10-26T03:57:43;53.40;;;18.15;;
48853;SDS011;34673;52.808;17.856;2022-10-26T04:00:12;64.65;;;17.42;;
48853;SDS011;34673;52.808;17.856;2022-10-26T04:02:42;67.85;;;17.23;;
48853;SDS011;34673;52.808;17.856;2022-10-26T04:05:15;71.63;;;18.33;;
48853;SDS011;34673;52.808;17.856;2022-10-26T04:07:43;47.58;;;15.45;;
48853;SDS011;34673;52.808;17.856;2022-10-26T04:10:10;37.15;;;14.45;;
48853;SDS011;34673;52.808;17.856;2022-10-26T04:12:37;48.72;;;14.57;;
48853;SDS011;34673;52.808;17.856;2022-10-26T04:15:05;50.00;;;15.18;;
48853;SDS011;34673;52.808;17.856;2022-10-26T04:17:33;65.57;;;15.30;;
48853;SDS011;34673;52.808;17.856;2022-10-26T04:20:00;78.95;;;16.77;;
48853;SDS011;34673;52.808;17.856;2022-10-26T04:22:27;94.78;;;16.70;;
48853;SDS011;34673;52.808;17.856;2022-10-26T04:24:55;49.00;;;13.43;;
48853;SDS011;34673;52.808;17.856;2022-10-26T04:27:22;42.75;;;12.77;;
48853;SDS011;34673;52.808;17.856;2022-10-26T04:29:49;55.75;;;13.25;;
48853;SDS011;34673;52.808;17.856;2022-10-26T04:32:16;91.75;;;14.05;;
48853;SDS011;34673;52.808;17.856;2022-10-26T04:34:44;93.43;;;15.35;;
48853;SDS011;34673;52.808;17.856;2022-10-26T04:37:11;79.68;;;14.30;;
48853;SDS011;34673;52.808;17.856;2022-10-26T04:39:38;197.43;;;17.92;;
48853;SDS011;34673;52.808;17.856;2022-10-26T04:42:05;157.65;;;17.20;;
48853;SDS011;34673;52.808;17.856;2022-10-26T04:44:33;152.63;;;16.60;;
48853;SDS011;34673;52.808;17.856;2022-10-26T04:47:00;120.97;;;16.02;;
48853;SDS011;34673;52.808;17.856;2022-10-26T04:49:27;97.47;;;15.00;;
48853;SDS011;34673;52.808;17.856;2022-10-26T04:51:54;93.88;;;15.25;;
48853;SDS011;34673;52.808;17.856;2022-10-26T04:54:21;134.07;;;15.52;;
48853;SDS011;34673;52.808;17.856;2022-10-26T04:56:50;129.77;;;15.18;;
48853;SDS011;34673;52.808;17.856;2022-10-26T04:59:17;85.63;;;13.90;;
48853;SDS011;34673;52.808;17.856;2022-10-26T05:01:45;82.85;;;13.52;;
48853;SDS011;34673;52.808;17.856;2022-10-26T05:04:12;47.75;;;11.15;;
48853;SDS011;34673;52.808;17.856;2022-10-26T05:06:39;28.95;;;10.95;;
48853;SDS011;34673;52.808;17.856;2022-10-26T05:09:07;142.68;;;18.63;;
48853;SDS011;34673;52.808;17.856;2022-10-26T05:11:34;57.85;;;11.32;;
48853;SDS011;34673;52.808;17.856;2022-10-26T05:14:01;32.20;;;11.57;;
48853;SDS011;34673;52.808;17.856;2022-10-26T05:16:29;141.68;;;15.48;;
48853;SDS011;34673;52.808;17.856;2022-10-26T05:18:56;130.35;;;15.95;;
48853;SDS011;34673;52.808;17.856;2022-10-26T05:21:23;80.85;;;14.60;;
48853;SDS011;34673;52.808;17.856;2022-10-26T05:23:51;82.22;;;12.75;;
48853;SDS011;34673;52.808;17.856;2022-10-26T05:26:21;79.63;;;12.55;;
48853;SDS011;34673;52.808;17.856;2022-10-26T05:28:50;80.50;;;14.60;;
48853;SDS011;34673;52.808;17.856;2022-10-26T05:31:18;71.90;;;12.55;;
48853;SDS011;34673;52.808;17.856;2022-10-26T05:33:49;98.00;;;14.38;;
48853;SDS011;34673;52.808;17.856;2022-10-26T05:36:17;83.57;;;13.75;;
48853;SDS011;34673;52.808;17.856;2022-10-26T05:38:45;28.92;;;10.55;;
48853;SDS011;34673;52.808;17.856;2022-10-26T05:41:12;73.45;;;13.15;;
48853;SDS011;34673;52.808;17.856;2022-10-26T05:43:40;68.35;;;12.63;;
48853;SDS011;34673;52.808;17.856;2022-10-26T05:46:07;28.23;;;8.43;;
48853;SDS011;34673;52.808;17.856;2022-10-26T05:48:34;63.72;;;11.90;;
48853;SDS011;34673;52.808;17.856;2022-10-26T05:51:02;41.10;;;11.18;;
48853;SDS011;34673;52.808;17.856;2022-10-26T05:53:29;62.50;;;11.73;;
48853;SDS011;34673;52.808;17.856;2022-10-26T05:55:57;104.63;;;13.63;;
48853;SDS011;34673;52.808;17.856;2022-10-26T05:58:24;54.22;;;11.07;;
48853;SDS011;34673;52.808;17.856;2022-10-26T06:03:58;71.78;;;12.25;;
48853;SDS011;34673;52.808;17.856;2022-10-26T06:06:44;66.95;;;12.00;;
48853;SDS011;34673;52.808;17.856;2022-10-26T06:09:13;66.15;;;10.65;;
48853;SDS011;34673;52.808;17.856;2022-10-26T06:11:41;19.00;;;9.13;;
48853;SDS011;34673;52.808;17.856;2022-10-26T06:14:08;73.20;;;13.23;;
48853;SDS011;34673;52.808;17.856;2022-10-26T06:16:43;47.88;;;10.50;;
48853;SDS011;34673;52.808;17.856;2022-10-26T06:22:17;35.63;;;9.52;;
48853;SDS011;34673;52.808;17.856;2022-10-26T06:28:04;63.85;;;12.95;;
48853;SDS011;34673;52.808;17.856;2022-10-26T06:30:54;71.07;;;13.18;;
48853;SDS011;34673;52.808;17.856;2022-10-26T06:33:23;48.95;;;11.25;;
48853;SDS011;34673;52.808;17.856;2022-10-26T06:38:30;49.38;;;12.93;;
48853;SDS011;34673;52.808;17.856;2022-10-26T06:41:00;35.55;;;12.05;;
48853;SDS011;34673;52.808;17.856;2022-10-26T06:43:31;100.70;;;14.07;;
48853;SDS011;34673;52.808;17.856;2022-10-26T06:46:04;111.88;;;15.68;;
48853;SDS011;34673;52.808;17.856;2022-10-26T06:49:05;48.08;;;11.88;;
48853;SDS011;34673;52.808;17.856;2022-10-26T06:51:50;54.88;;;11.98;;
48853;SDS011;34673;52.808;17.856;2022-10-26T06:57:13;18.20;;;8.90;;
48853;SDS011;34673;52.808;17.856;2022-10-26T06:59:43;60.80;;;12.30;;
48853;SDS011;34673;52.808;17.856;2022-10-26T07:02:11;21.65;;;10.05;;
48853;SDS011;34673;52.808;17.856;2022-10-26T07:04:41;43.83;;;9.83;;
48853;SDS011;34673;52.808;17.856;2022-10-26T07:07:19;37.75;;;11.48;;
48853;SDS011;34673;52.808;17.856;2022-10-26T07:09:48;115.68;;;14.50;;
48853;SDS011;34673;52.808;17.856;2022-10-26T07:12:16;69.28;;;12.82;;
48853;SDS011;34673;52.808;17.856;2022-10-26T07:14:43;74.15;;;13.25;;
48853;SDS011;34673;52.808;17.856;2022-10-26T07:17:10;51.13;;;11.50;;
48853;SDS011;34673;52.808;17.856;2022-10-26T07:19:38;40.78;;;11.50;;
48853;SDS011;34673;52.808;17.856;2022-10-26T07:22:10;81.15;;;13.60;;
48853;SDS011;34673;52.808;17.856;2022-10-26T07:24:38;88.90;;;15.07;;
48853;SDS011;34673;52.808;17.856;2022-10-26T07:27:05;18.75;;;9.93;;
48853;SDS011;34673;52.808;17.856;2022-10-26T07:29:32;21.02;;;10.88;;
48853;SDS011;34673;52.808;17.856;2022-10-26T07:32:01;34.58;;;12.75;;
48853;SDS011;34673;52.808;17.856;2022-10-26T07:34:28;109.25;;;14.98;;
48853;SDS011;34673;52.808;17.856;2022-10-26T07:36:57;90.47;;;15.25;;
48853;SDS011;34673;52.808;17.856;2022-10-26T07:39:25;17.20;;;10.80;;
48853;SDS011;34673;52.808;17.856;2022-10-26T07:41:53;54.15;;;13.55;;
48853;SDS011;34673;52.808;17.856;2022-10-26T07:44:20;45.03;;;12.82;;
48853;SDS011;34673;52.808;17.856;2022-10-26T07:46:47;35.53;;;13.35;;
48853;SDS011;34673;52.808;17.856;2022-10-26T07:49:14;33.88;;;13.25;;
48853;SDS011;34673;52.808;17.856;2022-10-26T07:54:12;53.03;;;14.63;;
48853;SDS011;34673;52.808;17.856;2022-10-26T07:56:39;68.35;;;14.32;;
48853;SDS011;34673;52.808;17.856;2022-10-26T07:59:06;48.47;;;13.25;;
48853;SDS011;34673;52.808;17.856;2022-10-26T08:01:33;57.95;;;12.50;;
48853;SDS011;34673;52.808;17.856;2022-10-26T08:04:01;67.22;;;14.05;;
48853;SDS011;34673;52.808;17.856;2022-10-26T08:06:28;40.45;;;12.23;;
48853;SDS011;34673;52.808;17.856;2022-10-26T08:08:55;37.33;;;13.25;;
48853;SDS011;34673;52.808;17.856;2022-10-26T08:11:23;45.92;;;14.77;;
48853;SDS011;34673;52.808;17.856;2022-10-26T08:13:51;76.57;;;16.73;;
48853;SDS011;34673;52.808;17.856;2022-10-26T08:16:19;56.35;;;16.80;;
48853;SDS011;34673;52.808;17.856;2022-10-26T08:18:47;65.88;;;15.50;;
48853;SDS011;34673;52.808;17.856;2022-10-26T08:21:15;40.17;;;13.27;;
48853;SDS011;34673;52.808;17.856;2022-10-26T08:24:01;50.22;;;12.55;;
48853;SDS011;34673;52.808;17.856;2022-10-26T08:26:28;80.45;;;16.15;;
48853;SDS011;34673;52.808;17.856;2022-10-26T08:28:56;73.90;;;18.60;;
48853;SDS011;34673;52.808;17.856;2022-10-26T08:31:23;48.13;;;13.82;;
48853;SDS011;34673;52.808;17.856;2022-10-26T08:33:51;33.95;;;14.43;;
48853;SDS011;34673;52.808;17.856;2022-10-26T08:36:24;47.13;;;16.33;;
48853;SDS011;34673;52.808;17.856;2022-10-26T08:38:53;35.67;;;14.55;;
48853;SDS011;34673;52.808;17.856;2022-10-26T08:41:27;67.82;;;16.08;;
48853;SDS011;34673;52.808;17.856;2022-10-26T08:47:07;25.20;;;14.23;;
48853;SDS011;34673;52.808;17.856;2022-10-26T08:49:45;46.75;;;14.68;;
48853;SDS011;34673;52.808;17.856;2022-10-26T08:52:18;34.17;;;14.63;;
48853;SDS011;34673;52.808;17.856;2022-10-26T08:54:51;31.27;;;14.48;;
48853;SDS011;34673;52.808;17.856;2022-10-26T08:57:40;31.83;;;14.32;;
48853;SDS011;34673;52.808;17.856;2022-10-26T09:00:12;28.48;;;13.88;;
48853;SDS011;34673;52.808;17.856;2022-10-26T09:02:43;34.05;;;15.20;;
48853;SDS011;34673;52.808;17.856;2022-10-26T09:05:14;34.30;;;14.43;;
48853;SDS011;34673;52.808;17.856;2022-10-26T09:29:33;25.08;;;15.23;;
48853;SDS011;34673;52.808;17.856;2022-10-26T09:32:09;25.83;;;15.18;;
48853;SDS011;34673;52.808;17.856;2022-10-26T09:34:47;39.58;;;17.52;;
48853;SDS011;34673;52.808;17.856;2022-10-26T09:37:22;27.67;;;16.90;;
48853;SDS011;34673;52.808;17.856;2022-10-26T09:42:21;26.45;;;15.73;;
48853;SDS011;34673;52.808;17.856;2022-10-26T09:44:59;30.77;;;16.85;;
48853;SDS011;34673;52.808;17.856;2022-10-26T09:47:37;20.77;;;15.45;;
48853;SDS011;34673;52.808;17.856;2022-10-26T09:52:38;36.67;;;19.83;;
48853;SDS011;34673;52.808;17.856;2022-10-26T09:55:09;31.23;;;17.95;;
48853;SDS011;34673;52.808;17.856;2022-10-26T09:57:38;31.90;;;17.80;;
48853;SDS011;34673;52.808;17.856;2022-10-26T10:00:11;37.22;;;19.98;;
48853;SDS011;34673;52.808;17.856;2022-10-26T10:02:44;33.55;;;18.35;;
48853;SDS011;34673;52.808;17.856;2022-10-26T10:05:25;28.67;;;17.65;;
48853;SDS011;34673;52.808;17.856;2022-10-26T10:08:18;29.30;;;17.27;;
48853;SDS011;34673;52.808;17.856;2022-10-26T10:13:26;35.08;;;19.27;;
48853;SDS011;34673;52.808;17.856;2022-10-26T10:18:31;27.08;;;17.85;;
48853;SDS011;34673;52.808;17.856;2022-10-26T10:20:59;34.22;;;19.98;;
48853;SDS011;34673;52.808;17.856;2022-10-26T10:23:28;28.77;;;17.83;;
48853;SDS011;34673;52.808;17.856;2022-10-26T10:26:17;24.48;;;16.98;;
48853;SDS011;34673;52.808;17.856;2022-10-26T10:28:56;31.70;;;18.17;;
48853;SDS011;34673;52.808;17.856;2022-10-26T10:31:29;26.77;;;18.05;;
48853;SDS011;34673;52.808;17.856;2022-10-26T10:33:58;31.95;;;18.70;;
48853;SDS011;34673;52.808;17.856;2022-10-26T10:36:27;32.15;;;19.58;;
48853;SDS011;34673;52.808;17.856;2022-10-26T10:41:32;27.73;;;17.40;;
48853;SDS011;34673;52.808;17.856;2022-10-26T10:44:21;30.67;;;18.67;;
48853;SDS011;34673;52.808;17.856;2022-10-26T10:47:02;32.25;;;18.15;;
48853;SDS011;34673;52.808;17.856;2022-10-26T10:49:32;29.73;;;18.25;;
48853;SDS011;34673;52.808;17.856;2022-10-26T10:52:00;29.08;;;18.45;;
48853;SDS011;34673;52.808;17.856;2022-10-26T10:54:36;28.67;;;17.67;;
48853;SDS011;34673;52.808;17.856;2022-10-26T10:57:23;25.63;;;16.13;;
48853;SDS011;34673;52.808;17.856;2022-10-26T11:00:08;27.13;;;16.85;;
48853;SDS011;34673;52.808;17.856;2022-10-26T11:05:32;26.63;;;16.65;;
48853;SDS011;34673;52.808;17.856;2022-10-26T11:08:25;27.88;;;18.90;;
48853;SDS011;34673;52.808;17.856;2022-10-26T11:10:57;29.65;;;18.77;;
48853;SDS011;34673;52.808;17.856;2022-10-26T11:16:02;28.48;;;18.83;;
48853;SDS011;34673;52.808;17.856;2022-10-26T11:18:39;28.95;;;17.80;;
48853;SDS011;34673;52.808;17.856;2022-10-26T11:21:15;28.48;;;17.95;;
48853;SDS011;34673;52.808;17.856;2022-10-26T11:23:53;26.85;;;17.35;;
48853;SDS011;34673;52.808;17.856;2022-10-26T11:26:30;27.83;;;17.33;;
48853;SDS011;34673;52.808;17.856;2022-10-26T11:29:22;25.65;;;16.80;;
48853;SDS011;34673;52.808;17.856;2022-10-26T11:32:26;26.50;;;17.85;;
48853;SDS011;34673;52.808;17.856;2022-10-26T11:41:16;23.35;;;15.88;;
48853;SDS011;34673;52.808;17.856;2022-10-26T11:44:21;28.35;;;17.52;;
48853;SDS011;34673;52.808;17.856;2022-10-26T11:46:57;22.27;;;15.55;;
48853;SDS011;34673;52.808;17.856;2022-10-26T11:49:32;28.23;;;17.33;;
48853;SDS011;34673;52.808;17.856;2022-10-26T11:52:24;26.55;;;17.92;;
48853;SDS011;34673;52.808;17.856;2022-10-26T11:55:13;30.55;;;18.48;;
48853;SDS011;34673;52.808;17.856;2022-10-26T11:57:41;28.45;;;18.25;;
48853;SDS011;34673;52.808;17.856;2022-10-26T12:02:39;27.75;;;18.65;;
48853;SDS011;34673;52.808;17.856;2022-10-26T12:07:58;25.65;;;18.17;;
48853;SDS011;34673;52.808;17.856;2022-10-26T12:10:30;32.72;;;19.95;;
48853;SDS011;34673;52.808;17.856;2022-10-26T12:13:19;28.98;;;18.50;;
48853;SDS011;34673;52.808;17.856;2022-10-26T12:15:56;27.05;;;18.58;;
48853;SDS011;34673;52.808;17.856;2022-10-26T12:18:46;27.98;;;17.80;;
48853;SDS011;34673;52.808;17.856;2022-10-26T12:21:26;28.77;;;18.10;;
48853;SDS011;34673;52.808;17.856;2022-10-26T12:24:23;26.80;;;19.10;;
48853;SDS011;34673;52.808;17.856;2022-10-26T12:26:55;30.48;;;19.00;;
48853;SDS011;34673;52.808;17.856;2022-10-26T12:32:03;27.85;;;18.83;;
48853;SDS011;34673;52.808;17.856;2022-10-26T12:37:21;30.00;;;18.20;;
48853;SDS011;34673;52.808;17.856;2022-10-26T12:45:42;28.40;;;18.40;;
48853;SDS011;34673;52.808;17.856;2022-10-26T12:51:38;26.38;;;17.60;;
48853;SDS011;34673;52.808;17.856;2022-10-26T12:56:54;32.10;;;19.27;;
48853;SDS011;34673;52.808;17.856;2022-10-26T13:05:02;27.50;;;17.98;;
48853;SDS011;34673;52.808;17.856;2022-10-26T13:07:35;28.23;;;19.17;;
48853;SDS011;34673;52.808;17.856;2022-10-26T13:10:25;29.70;;;18.02;;
48853;SDS011;34673;52.808;17.856;2022-10-26T13:12:53;31.92;;;20.90;;
48853;SDS011;34673;52.808;17.856;2022-10-26T13:15:27;56.72;;;32.53;;
48853;SDS011;34673;52.808;17.856;2022-10-26T13:17:58;29.67;;;18.90;;
48853;SDS011;34673;52.808;17.856;2022-10-26T13:20:35;31.17;;;20.75;;
48853;SDS011;34673;52.808;17.856;2022-10-26T13:23:21;30.77;;;18.63;;
48853;SDS011;34673;52.808;17.856;2022-10-26T13:31:52;32.35;;;18.48;;
48853;SDS011;34673;52.808;17.856;2022-10-26T13:34:18;31.45;;;17.95;;
48853;SDS011;34673;52.808;17.856;2022-10-26T13:39:30;29.88;;;18.00;;
48853;SDS011;34673;52.808;17.856;2022-10-26T13:42:01;27.63;;;17.08;;
48853;SDS011;34673;52.808;17.856;2022-10-26T13:44:37;27.77;;;17.02;;
48853;SDS011;34673;52.808;17.856;2022-10-26T13:47:11;27.02;;;17.42;;
48853;SDS011;34673;52.808;17.856;2022-10-26T13:49:48;29.25;;;16.58;;
48853;SDS011;34673;52.808;17.856;2022-10-26T13:52:27;28.80;;;17.15;;
48853;SDS011;34673;52.808;17.856;2022-10-26T13:55:00;28.98;;;17.73;;
48853;SDS011;34673;52.808;17.856;2022-10-26T14:00:15;29.85;;;17.08;;
48853;SDS011;34673;52.808;17.856;2022-10-26T14:02:47;29.88;;;17.88;;
48853;SDS011;34673;52.808;17.856;2022-10-26T14:05:16;26.45;;;16.33;;
48853;SDS011;34673;52.808;17.856;2022-10-26T14:07:46;25.17;;;17.35;;
48853;SDS011;34673;52.808;17.856;2022-10-26T14:12:52;26.60;;;16.33;;
48853;SDS011;34673;52.808;17.856;2022-10-26T14:15:22;26.85;;;15.88;;
48853;SDS011;34673;52.808;17.856;2022-10-26T14:17:51;25.00;;;16.08;;
48853;SDS011;34673;52.808;17.856;2022-10-26T14:20:22;23.73;;;14.87;;
48853;SDS011;34673;52.808;17.856;2022-10-26T14:22:51;26.40;;;15.90;;
48853;SDS011;34673;52.808;17.856;2022-10-26T14:25:25;25.23;;;15.80;;
48853;SDS011;34673;52.808;17.856;2022-10-26T14:28:24;24.63;;;14.75;;
48853;SDS011;34673;52.808;17.856;2022-10-26T14:30:53;26.85;;;15.82;;
48853;SDS011;34673;52.808;17.856;2022-10-26T14:33:42;21.95;;;14.82;;
48853;SDS011;34673;52.808;17.856;2022-10-26T14:36:09;22.17;;;14.93;;
48853;SDS011;34673;52.808;17.856;2022-10-26T14:38:40;23.38;;;14.38;;
48853;SDS011;34673;52.808;17.856;2022-10-26T14:41:11;23.50;;;14.32;;
48853;SDS011;34673;52.808;17.856;2022-10-26T14:43:42;21.02;;;13.63;;
48853;SDS011;34673;52.808;17.856;2022-10-26T14:46:12;22.70;;;13.80;;
48853;SDS011;34673;52.808;17.856;2022-10-26T14:49:03;21.77;;;13.75;;
48853;SDS011;34673;52.808;17.856;2022-10-26T14:51:33;23.67;;;12.95;;
48853;SDS011;34673;52.808;17.856;2022-10-26T14:54:01;23.95;;;13.85;;
48853;SDS011;34673;52.808;17.856;2022-10-26T15:01:58;19.77;;;12.77;;
48853;SDS011;34673;52.808;17.856;2022-10-26T15:05:01;22.77;;;13.93;;
48853;SDS011;34673;52.808;17.856;2022-10-26T15:07:34;22.27;;;14.30;;
48853;SDS011;34673;52.808;17.856;2022-10-26T15:10:03;21.73;;;14.18;;
48853;SDS011;34673;52.808;17.856;2022-10-26T15:12:32;27.30;;;14.18;;
48853;SDS011;34673;52.808;17.856;2022-10-26T15:15:18;24.38;;;13.85;;
48853;SDS011;34673;52.808;17.856;2022-10-26T15:17:51;19.27;;;13.70;;
48853;SDS011;34673;52.808;17.856;2022-10-26T15:20:21;25.75;;;13.82;;
48853;SDS011;34673;52.808;17.856;2022-10-26T15:22:50;21.23;;;13.40;;
48853;SDS011;34673;52.808;17.856;2022-10-26T15:25:24;22.63;;;12.68;;
48853;SDS011;34673;52.808;17.856;2022-10-26T15:27:54;23.25;;;13.50;;
48853;SDS011;34673;52.808;17.856;2022-10-26T15:30:35;24.08;;;13.57;;
48853;SDS011;34673;52.808;17.856;2022-10-26T15:33:09;22.30;;;13.80;;
48853;SDS011;34673;52.808;17.856;2022-10-26T15:35:45;28.83;;;16.58;;
48853;SDS011;34673;52.808;17.856;2022-10-26T15:38:13;39.10;;;23.30;;
48853;SDS011;34673;52.808;17.856;2022-10-26T15:40:41;40.17;;;22.08;;
48853;SDS011;34673;52.808;17.856;2022-10-26T15:43:09;29.38;;;19.20;;
48853;SDS011;34673;52.808;17.856;2022-10-26T15:45:43;32.10;;;20.08;;
48853;SDS011;34673;52.808;17.856;2022-10-26T15:48:23;30.40;;;17.65;;
48853;SDS011;34673;52.808;17.856;2022-10-26T15:50:55;24.52;;;17.30;;
48853;SDS011;34673;52.808;17.856;2022-10-26T15:53:23;29.45;;;17.33;;
48853;SDS011;34673;52.808;17.856;2022-10-26T15:55:56;35.47;;;18.45;;
48853;SDS011;34673;52.808;17.856;2022-10-26T15:58:26;31.75;;;17.65;;
48853;SDS011;34673;52.808;17.856;2022-10-26T16:00:55;29.92;;;16.13;;
48853;SDS011;34673;52.808;17.856;2022-10-26T16:03:23;37.13;;;17.55;;
48853;SDS011;34673;52.808;17.856;2022-10-26T16:05:56;29.48;;;15.48;;
48853;SDS011;34673;52.808;17.856;2022-10-26T16:08:25;27.45;;;15.05;;
48853;SDS011;34673;52.808;17.856;2022-10-26T16:10:55;28.55;;;13.90;;
48853;SDS011;34673;52.808;17.856;2022-10-26T16:13:23;30.70;;;14.93;;
48853;SDS011;34673;52.808;17.856;2022-10-26T16:15:50;25.33;;;14.10;;
48853;SDS011;34673;52.808;17.856;2022-10-26T16:18:17;29.70;;;15.70;;
48853;SDS011;34673;52.808;17.856;2022-10-26T16:20:45;24.17;;;15.02;;
48853;SDS011;34673;52.808;17.856;2022-10-26T16:23:12;28.00;;;14.63;;
48853;SDS011;34673;52.808;17.856;2022-10-26T16:25:41;23.23;;;14.55;;
48853;SDS011;34673;52.808;17.856;2022-10-26T16:28:11;24.42;;;14.35;;
48853;SDS011;34673;52.808;17.856;2022-10-26T16:30:39;30.30;;;15.73;;
48853;SDS011;34673;52.808;17.856;2022-10-26T16:33:07;25.88;;;14.93;;
48853;SDS011;34673;52.808;17.856;2022-10-26T16:35:34;28.02;;;13.95;;
48853;SDS011;34673;52.808;17.856;2022-10-26T16:38:02;19.70;;;12.55;;
48853;SDS011;34673;52.808;17.856;2022-10-26T16:40:29;28.23;;;16.35;;
48853;SDS011;34673;52.808;17.856;2022-10-26T16:42:56;30.33;;;18.30;;
48853;SDS011;34673;52.808;17.856;2022-10-26T16:45:23;28.65;;;16.38;;
48853;SDS011;34673;52.808;17.856;2022-10-26T16:47:51;33.78;;;18.02;;
48853;SDS011;34673;52.808;17.856;2022-10-26T16:50:19;37.25;;;20.38;;
48853;SDS011;34673;52.808;17.856;2022-10-26T16:52:47;29.83;;;18.63;;
48853;SDS011;34673;52.808;17.856;2022-10-26T16:55:14;42.03;;;22.63;;
48853;SDS011;34673;52.808;17.856;2022-10-26T16:57:42;43.25;;;21.88;;
48853;SDS011;34673;52.808;17.856;2022-10-26T17:00:09;43.60;;;24.33;;
48853;SDS011;34673;52.808;17.856;2022-10-26T17:02:37;34.67;;;20.27;;
48853;SDS011;34673;52.808;17.856;2022-10-26T17:05:05;43.03;;;24.10;;
48853;SDS011;34673;52.808;17.856;2022-10-26T17:07:35;51.72;;;28.10;;